KPHXKRAL

Guest
Details From KPHX - Phoenix Sky Harbor Intl
To KRAL - Riverside Muni
Flight Number -
Tags Generated
Created
Modified
Stats Distance 273 nm / 505 km
Max Altitude 0 ft / 0 m
Waypoints 3
Social Downloads 1
Likes 0
Share VATSIM

Download

Looking for another format? Having issues loading an existing format? Contact us
Advertisement - Login to hide

Notes

Generated

Route

KPHX ACINS KRAL

ID Type Via Altitude Latitude Longitude Leg Dist Tot Dist Heading (true) Name
O KPHX APT - 0 ft / 0 m 33.42886˚ -112.02710˚ - 0 nm - -
ACINS FIX - 0 ft / 0 m 33.93389˚ -117.16211˚ 258 nm 258 nm 278° / 275° -
O KRAL APT - 0 ft / 0 m 33.95516˚ -117.44864˚ 14 nm 272 nm 275° / 275° -

Altitude Profile

Advertisement - Login to hide

Weather


0- 5 10 15 20 25 30 35+ Temperature / ° C

Clouds and Precipitation
Forecast for 2017-12-11 12:00 UTC. Updated 13 minutes ago

Ground ~20,000 ft ~40,000 ft Winds

KPHX

Details ICAO KPHX (PHX)
Name Phoenix Sky Harbor Intl
Region United States
Timezone America/Phoenix (UTC-7.0)
Stats Elevation 1,135 ft / 346 m (AMSL)
Location 33.433580° -112.011837°
Runways 3
Magnetic Variation 10.316° E

METAR

KPHX 111051Z 00000KT 10SM OVC240 13/M06 A3021 RMK AO2 SLP219 T01281056

Decode

TAF

KPHX 110905Z 1109/1212 12007KT P6SM BKN220 FM120000 24005KT P6SM BKN250 FM120400 07007KT P6SM BKN250

Decode

Departure Runways

ID Width Length Bearing (true) Bearing (mag) Surface Threshold Offset Overrun Length
07L 151 ft / 46 m 10,279 ft / 3,133 m 90.03° 79.71° Concrete 0 ft / 0 m 400 ft / 122 m
07R 151 ft / 46 m 7,785 ft / 2,373 m 90.03° 79.71° Concrete 0 ft / 0 m 499 ft / 152 m
08 151 ft / 46 m 11,467 ft / 3,495 m 90.06° 79.74° Concrete 899 ft / 274 m 377 ft / 115 m
25L 151 ft / 46 m 7,785 ft / 2,373 m 270.05° 259.73° Concrete 0 ft / 0 m 702 ft / 214 m
25R 151 ft / 46 m 10,279 ft / 3,133 m 270.05° 259.73° Concrete 0 ft / 0 m 991 ft / 302 m
26 151 ft / 46 m 11,467 ft / 3,495 m 270.08° 259.76° Concrete 0 ft / 0 m 0 ft / 0 m

KRAL

Details ICAO KRAL (RAL)
Name Riverside Muni
Region United States
Timezone America/Los_Angeles (UTC-8.0)
Stats Elevation 818 ft / 249 m (AMSL)
Location 33.951727° -117.445911°
Runways 2
Magnetic Variation 11.811° E

METAR

KRAL 111053Z AUTO 05006KT 10SM CLR 14/M08 A3018 RMK AO2 SLP208 T01441083

Decode

TAF

Not found

Destination Runways

ID Width Length Bearing (true) Bearing (mag) Surface Threshold Offset Overrun Length
09 98 ft / 30 m 5,391 ft / 1,643 m 103.12° 91.31° Asphalt 0 ft / 0 m 0 ft / 0 m
16 49 ft / 15 m 2,859 ft / 871 m 178.57° 166.76° Asphalt 0 ft / 0 m 0 ft / 0 m
27 98 ft / 30 m 5,391 ft / 1,643 m 283.12° 271.31° Asphalt 0 ft / 0 m 0 ft / 0 m
34 49 ft / 15 m 2,859 ft / 871 m 358.57° 346.76° Asphalt 0 ft / 0 m 0 ft / 0 m

Approach Navaids

Runway Type Ident Frequency Range Bearing (true) Bearing (mag) Slope Elevation
09 Localiser IRAL 110.90 MHz 18 nm / 33 km 103.12° 91.31° - 828 ft / 252 m (AMSL)
09 Glidescope IRAL 110.90 MHz 10 nm / 19 km 103.12° 91.31° 3.00° 764 ft / 233 m (AMSL)